Terminal Aerodrome Forecast
Issued by NWS Houston/Galveston TX

Home | Current Version | Previous Version | Text Only | Print | Product List | Glossary On
Versions: 1 2 3 4 5 6 7 8 9 10 11 12 13 14 15 16 17 18 19 20 21 22 23 24 25 26
000
FTUS44 KHGX 182057 AAA
TAFHOU
TAF AMD
KHOU 182057Z 1821/1918 01009KT P6SM SCT050
     FM190300 07002KT P6SM FEW050 SCT250
     FM191500 10006KT P6SM SCT035 BKN250=

USA.gov is the U.S. government's official web portal to all federal, state and local government web resources and services.